Time;durP1;ratioP1;P1;durP2;ratioP2;P2;SDS_P1;SDS_P2;PMS_P1;PMS_P2;Temp;Humidity;BMP_temperature;BMP_pressure;BME280_temperature;BME280_humidity;BME280_pressure;Samples;Min_cycle;Max_cycle;Signal;HPM_P1;HPM_P2
2022/12/15 00:38:53;;;;;;;;;;;;;;;21.21;26.99;97270.63;5118998;28;891;-80
2022/12/15 00:41:18;;;;;;;;;;;;;;;21.31;26.83;97263.81;5117824;28;915;-79
2022/12/15 00:43:43;;;;;;;;;;;;;;;21.03;27.49;97259.94;5118215;28;964;-80
2022/12/15 00:48:53;;;;;;;;;;;;;;;21.00;27.53;97247.50;5117927;28;857;-80
2022/12/15 00:51:18;;;;;;;;;;;;;;;21.09;27.15;97255.28;5119312;28;986;-79
2022/12/15 01:21:05;;;;;;;;;;;;;;;20.80;27.80;97179.16;5095645;28;935;-79
2022/12/15 01:23:31;;;;;;;;;;;;;;;21.10;27.30;97180.50;5095111;28;970;-80
2022/12/15 01:25:56;;;;;;;;;;;;;;;21.27;27.06;97181.06;5095241;28;921;-82
2022/12/15 01:28:22;;;;;;;;;;;;;;;21.21;27.33;97178.03;5095270;28;922;-80
2022/12/15 01:30:47;;;;;;;;;;;;;;;21.10;27.20;97174.81;5095338;28;898;-80
2022/12/15 01:33:13;;;;;;;;;;;;;;;20.73;27.76;97171.75;5126931;27;886;-79
2022/12/15 01:35:39;;;;;;;;;;;;;;;20.63;28.08;97164.44;5138417;27;1969;-80
2022/12/15 01:38:04;;;;;;;;;;;;;;;21.17;27.45;97166.06;5137922;27;893;-80
2022/12/15 01:40:45;;;;;;;;;;;;;;;21.16;27.40;97158.84;5138516;27;938;-79
2022/12/15 01:43:16;;;;;;;;;;;;;;;21.06;27.36;97160.03;5138385;27;944;-80
2022/12/15 01:45:59;;;;;;;;;;;;;;;21.00;27.45;97156.22;5138535;27;809;-80
2022/12/15 01:48:33;;;;;;;;;;;;;;;20.63;28.12;97150.31;5136492;27;909;-80
2022/12/15 01:51:06;;;;;;;;;;;;;;;20.60;28.12;97137.06;5095108;28;1175;-80
2022/12/15 01:53:32;;;;;;;;;;;;;;;20.91;27.76;97145.63;5094406;28;1017;-80
2022/12/15 01:55:58;;;;;;;;;;;;;;;21.17;27.32;97129.28;5094882;28;1917;-80
2022/12/15 01:58:23;;;;;;;;;;;;;;;21.39;26.98;97132.09;5094674;28;913;-80
2022/12/15 02:00:49;;;;;;;;;;;;;;;21.25;27.45;97139.09;5085635;28;1859;-80
2022/12/15 02:03:14;;;;;;;;;;;;;;;20.91;27.56;97142.00;5033964;28;996;-80
2022/12/15 02:05:39;;;;;;;;;;;;;;;20.45;28.58;97139.59;5034618;28;963;-80
2022/12/15 02:08:05;;;;;;;;;;;;;;;20.87;27.95;97142.13;5034509;28;905;-79
2022/12/15 02:10:37;;;;;;;;;;;;;;;21.02;27.80;97126.22;5034448;28;1361;-80
2022/12/15 02:13:07;;;;;;;;;;;;;;;21.16;27.37;97118.44;5034275;28;1194;-80
2022/12/15 02:15:45;;;;;;;;;;;;;;;21.44;26.67;97111.69;5015236;28;928;-80
2022/12/15 02:18:11;;;;;;;;;;;;;;;20.90;27.55;97129.13;5014555;28;1123;-80
2022/12/15 02:20:36;;;;;;;;;;;;;;;20.55;28.04;97117.88;5014627;28;955;-80
2022/12/15 02:23:14;;;;;;;;;;;;;;;20.70;28.24;97121.75;5051520;28;920;-80
2022/12/15 02:25:52;;;;;;;;;;;;;;;20.87;27.58;97119.53;5054482;28;1065;-80
2022/12/15 02:28:26;;;;;;;;;;;;;;;21.13;27.22;97114.50;5053901;28;912;-80
2022/12/15 02:33:50;;;;;;;;;;;;;;;21.15;27.37;97106.34;5065462;28;928;-80
2022/12/15 02:36:23;;;;;;;;;;;;;;;20.58;28.16;97102.84;5097158;28;1905;-79
2022/12/15 02:38:48;;;;;;;;;;;;;;;20.51;28.45;97103.09;5095218;28;1160;-80
2022/12/15 02:41:50;;;;;;;;;;;;;;;21.04;27.39;97105.97;5097072;28;947;-80
2022/12/15 02:44:20;;;;;;;;;;;;;;;21.21;27.15;97109.34;5034069;28;987;-80
2022/12/15 02:46:48;;;;;;;;;;;;;;;21.36;26.92;97115.28;5034546;28;1014;-80
2022/12/15 02:49:13;;;;;;;;;;;;;;;21.03;27.15;97110.03;5033839;28;918;-80
2022/12/15 02:51:43;;;;;;;;;;;;;;;20.85;27.66;97107.09;5033907;28;1014;-80
2022/12/15 02:54:08;;;;;;;;;;;;;;;20.62;28.46;97120.44;5017445;28;970;-80
2022/12/15 02:56:39;;;;;;;;;;;;;;;21.18;27.55;97111.06;5033840;28;2050;-80
2022/12/15 02:59:34;;;;;;;;;;;;;;;21.35;27.03;97119.34;5034053;28;1025;-80
2022/12/15 03:02:00;;;;;;;;;;;;;;;21.54;27.00;97115.34;5008292;28;1700;-80
2022/12/15 03:04:25;;;;;;;;;;;;;;;21.22;26.91;97117.38;5013709;28;902;-80
2022/12/15 03:06:57;;;;;;;;;;;;;;;20.71;28.24;97112.03;5014042;28;1461;-80
2022/12/15 03:09:22;;;;;;;;;;;;;;;20.39;28.48;97101.09;5017289;28;1654;-80
2022/12/15 03:11:48;;;;;;;;;;;;;;;20.86;27.86;97089.66;5008219;28;1677;-80
2022/12/15 03:14:13;;;;;;;;;;;;;;;21.19;27.27;97095.69;5001299;28;913;-80
2022/12/15 03:16:38;;;;;;;;;;;;;;;21.19;27.29;97090.03;5018181;28;1918;-80
2022/12/15 03:19:04;;;;;;;;;;;;;;;21.25;27.15;97082.50;5034800;28;934;-80
2022/12/15 03:21:29;;;;;;;;;;;;;;;21.07;27.42;97071.09;4988414;28;950;-79
2022/12/15 03:23:55;;;;;;;;;;;;;;;20.73;28.01;97069.97;5037378;28;1002;-80
2022/12/15 03:26:20;;;;;;;;;;;;;;;20.73;28.21;97064.31;4988032;28;962;-79
2022/12/15 03:28:46;;;;;;;;;;;;;;;20.95;27.87;97071.97;5037119;28;998;-80
2022/12/15 03:31:11;;;;;;;;;;;;;;;21.02;27.67;97068.84;5037469;28;1012;-80
2022/12/15 03:33:37;;;;;;;;;;;;;;;21.33;27.18;97064.00;5037239;28;978;-80
2022/12/15 03:36:02;;;;;;;;;;;;;;;20.99;27.84;97064.16;5037286;28;1910;-80
2022/12/15 03:38:28;;;;;;;;;;;;;;;20.71;28.04;97049.84;5070381;28;1041;-79
2022/12/15 03:40:53;;;;;;;;;;;;;;;20.72;28.32;97051.41;5080654;28;983;-80
2022/12/15 03:43:18;;;;;;;;;;;;;;;21.17;27.67;97052.91;5099515;28;936;-80
2022/12/15 03:45:44;;;;;;;;;;;;;;;21.13;27.62;97052.25;5099646;28;948;-80
2022/12/15 03:48:09;;;;;;;;;;;;;;;21.12;27.77;97053.50;5098410;28;970;-79
2022/12/15 03:50:36;;;;;;;;;;;;;;;21.24;27.39;97046.97;5100335;28;907;-80
2022/12/15 03:53:02;;;;;;;;;;;;;;;20.72;28.05;97042.94;5097925;28;1062;-80
2022/12/15 03:55:30;;;;;;;;;;;;;;;20.71;28.16;97044.19;5099512;28;1153;-79
2022/12/15 03:57:55;;;;;;;;;;;;;;;20.85;28.10;97048.50;5099478;28;1906;-80
2022/12/15 04:00:21;;;;;;;;;;;;;;;21.01;27.64;97039.00;5100760;28;1404;-79
2022/12/15 04:02:46;;;;;;;;;;;;;;;21.16;27.72;97042.84;5119295;28;1770;-80
2022/12/15 04:05:13;;;;;;;;;;;;;;;21.44;27.08;97048.63;5119658;28;956;-79
2022/12/15 04:07:38;;;;;;;;;;;;;;;20.94;27.65;97051.41;5118532;28;1143;-80
2022/12/15 04:10:04;;;;;;;;;;;;;;;20.54;28.33;97052.09;5110889;28;923;-79
2022/12/15 04:12:29;;;;;;;;;;;;;;;20.47;28.80;97057.25;5081700;28;1696;-79
2022/12/15 04:14:54;;;;;;;;;;;;;;;21.02;27.71;97037.75;5120405;27;2010;-80
2022/12/15 04:17:20;;;;;;;;;;;;;;;21.08;27.89;97027.41;5140011;27;1905;-79
2022/12/15 04:22:30;;;;;;;;;;;;;;;20.89;28.08;97037.88;5139735;27;1003;-79
2022/12/15 05:33:14;;;;;;;;;;;;;;;21.11;27.35;97060.44;5117817;28;898;-78
2022/12/15 05:35:39;;;;;;;;;;;;;;;21.08;27.40;97061.34;5116595;28;911;-78
2022/12/15 05:38:05;;;;;;;;;;;;;;;21.08;27.40;97064.16;5116402;28;1906;-78
2022/12/15 05:40:30;;;;;;;;;;;;;;;20.89;27.85;97071.00;5116740;28;1004;-78
2022/12/15 05:42:57;;;;;;;;;;;;;;;20.61;28.16;97065.16;5117217;28;943;-78
2022/12/15 05:45:23;;;;;;;;;;;;;;;20.37;28.58;97058.38;5116240;28;957;-79
2022/12/15 05:47:52;;;;;;;;;;;;;;;20.75;28.08;97061.03;5117567;28;859;-78
2022/12/15 05:50:17;;;;;;;;;;;;;;;21.05;27.49;97065.13;5117338;28;998;-78
2022/12/15 05:52:42;;;;;;;;;;;;;;;21.20;27.36;97074.63;5115909;28;905;-78
2022/12/15 05:55:08;;;;;;;;;;;;;;;21.39;26.92;97069.06;5117015;28;966;-78
2022/12/15 05:57:33;;;;;;;;;;;;;;;21.14;27.35;97070.81;5117604;28;1909;-78
2022/12/15 05:59:59;;;;;;;;;;;;;;;20.76;27.92;97063.38;5117456;28;809;-78
2022/12/15 06:02:24;;;;;;;;;;;;;;;20.80;28.13;97078.16;5117176;28;919;-79
2022/12/15 06:04:50;;;;;;;;;;;;;;;21.07;27.61;97082.41;5116858;28;1053;-79
2022/12/15 06:07:15;;;;;;;;;;;;;;;21.04;27.78;97083.34;5117223;28;907;-79
2022/12/15 06:09:41;;;;;;;;;;;;;;;21.16;27.41;97090.94;5115954;28;861;-78
2022/12/15 06:12:06;;;;;;;;;;;;;;;20.92;27.57;97090.66;5117068;28;1168;-78
2022/12/15 06:14:31;;;;;;;;;;;;;;;20.61;28.46;97095.47;5117182;28;904;-79
2022/12/15 06:16:58;;;;;;;;;;;;;;;20.48;28.34;97104.03;5117467;28;1913;-78
2022/12/15 06:19:24;;;;;;;;;;;;;;;20.79;27.87;97121.84;5115837;28;871;-78
2022/12/15 06:21:49;;;;;;;;;;;;;;;20.98;27.78;97125.56;5117281;28;1021;-78
2022/12/15 06:24:14;;;;;;;;;;;;;;;21.17;27.18;97126.47;5117057;28;886;-79
2022/12/15 06:26:40;;;;;;;;;;;;;;;21.36;27.31;97132.25;5117209;28;940;-78
2022/12/15 06:29:07;;;;;;;;;;;;;;;20.93;27.45;97133.84;5117033;28;928;-78
2022/12/15 06:31:33;;;;;;;;;;;;;;;20.59;28.16;97135.50;5115840;28;928;-79
2022/12/15 06:33:59;;;;;;;;;;;;;;;20.63;28.35;97143.88;5116781;28;888;-79
2022/12/15 06:36:25;;;;;;;;;;;;;;;20.76;28.20;97153.06;5097722;28;1979;-78
2022/12/15 06:38:50;;;;;;;;;;;;;;;21.10;27.48;97160.69;5115496;28;959;-78
2022/12/15 06:41:16;;;;;;;;;;;;;;;21.04;27.55;97162.53;5115420;28;1125;-79
2022/12/15 06:43:42;;;;;;;;;;;;;;;21.20;27.22;97170.81;5116088;28;1001;-78
2022/12/15 06:46:07;;;;;;;;;;;;;;;21.39;26.89;97171.72;5097792;28;1005;-79
2022/12/15 06:48:33;;;;;;;;;;;;;;;21.35;27.17;97179.56;5115959;28;955;-78
2022/12/15 06:51:05;;;;;;;;;;;;;;;20.99;27.66;97172.41;5116955;28;932;-79
2022/12/15 06:53:31;;;;;;;;;;;;;;;20.64;27.97;97173.69;5115511;28;897;-79
2022/12/15 06:56:00;;;;;;;;;;;;;;;20.45;28.63;97184.00;5116896;28;1964;-78
2022/12/15 06:58:26;;;;;;;;;;;;;;;20.83;27.87;97183.09;5115430;28;977;-79
2022/12/15 07:00:52;;;;;;;;;;;;;;;21.20;27.22;97181.34;5115869;28;990;-78
2022/12/15 07:03:18;;;;;;;;;;;;;;;21.24;27.05;97177.13;5116348;28;900;-78
2022/12/15 07:05:43;;;;;;;;;;;;;;;21.28;27.09;97189.06;5117454;28;954;-79
2022/12/15 07:08:12;;;;;;;;;;;;;;;20.92;27.46;97189.63;5116923;28;914;-79
2022/12/15 07:10:39;;;;;;;;;;;;;;;20.79;27.91;97195.34;5114945;28;1025;-78
2022/12/15 07:13:04;;;;;;;;;;;;;;;20.78;27.82;97201.47;5093649;28;914;-79
2022/12/15 07:15:30;;;;;;;;;;;;;;;20.91;27.75;97204.22;5093429;28;983;-79
2022/12/15 07:17:55;;;;;;;;;;;;;;;21.24;26.95;97211.06;5093694;28;1966;-79
2022/12/15 07:20:21;;;;;;;;;;;;;;;21.30;27.07;97208.47;5093807;28;945;-78
2022/12/15 07:22:49;;;;;;;;;;;;;;;21.08;27.27;97209.22;5075721;28;1134;-79
2022/12/15 07:25:15;;;;;;;;;;;;;;;20.65;27.92;97215.63;5075603;28;1173;-79
2022/12/15 07:27:40;;;;;;;;;;;;;;;20.57;27.93;97202.97;5092783;28;1308;-78
2022/12/15 07:30:06;;;;;;;;;;;;;;;20.99;27.44;97205.56;5092198;28;1232;-79
2022/12/15 07:32:32;;;;;;;;;;;;;;;21.13;27.32;97221.97;5075478;28;1221;-78
2022/12/15 07:34:57;;;;;;;;;;;;;;;21.28;26.95;97217.38;5092616;28;1283;-78
2022/12/15 07:37:23;;;;;;;;;;;;;;;21.35;26.72;97209.88;5092549;28;1971;-79
2022/12/15 07:39:48;;;;;;;;;;;;;;;21.17;27.03;97205.66;5092100;28;1350;-79
2022/12/15 07:42:13;;;;;;;;;;;;;;;20.83;27.54;97208.53;5092464;28;1256;-79
2022/12/15 07:44:39;;;;;;;;;;;;;;;20.64;27.98;97214.06;5100678;28;1295;-78
2022/12/15 07:47:05;;;;;;;;;;;;;;;21.14;26.94;97212.25;5105180;28;1282;-78
2022/12/15 07:49:30;;;;;;;;;;;;;;;21.32;26.77;97218.06;5103650;28;1257;-78
2022/12/15 07:51:57;;;;;;;;;;;;;;;21.17;26.93;97216.19;5105764;28;1199;-78
2022/12/15 07:54:22;;;;;;;;;;;;;;;21.08;26.96;97219.75;5087928;28;1204;-78
2022/12/15 07:56:48;;;;;;;;;;;;;;;20.92;27.39;97211.44;5107476;28;1965;-79
2022/12/15 07:59:14;;;;;;;;;;;;;;;20.61;27.91;97220.63;5111508;28;1279;-78
2022/12/15 08:01:39;;;;;;;;;;;;;;;21.06;27.29;97213.75;5106858;28;1223;-78
2022/12/15 08:04:05;;;;;;;;;;;;;;;21.08;27.15;97219.75;5115832;28;1199;-79
2022/12/15 08:06:31;;;;;;;;;;;;;;;21.55;26.60;97224.47;5119436;28;977;-79
2022/12/15 08:08:56;;;;;;;;;;;;;;;21.46;26.49;97218.78;5117609;28;1000;-78
2022/12/15 08:11:23;;;;;;;;;;;;;;;20.94;27.15;97225.94;5119879;28;1018;-78
2022/12/15 08:13:49;;;;;;;;;;;;;;;20.64;28.04;97225.38;5118002;28;894;-79
2022/12/15 08:16:14;;;;;;;;;;;;;;;20.53;27.92;97234.22;5117875;28;1951;-79
2022/12/15 08:18:39;;;;;;;;;;;;;;;21.02;27.23;97232.91;5118831;28;885;-78
2022/12/15 08:21:05;;;;;;;;;;;;;;;21.18;27.17;97227.03;5119353;28;967;-79
2022/12/15 08:23:31;;;;;;;;;;;;;;;21.23;26.89;97232.09;5117744;28;862;-79
2022/12/15 08:26:03;;;;;;;;;;;;;;;21.44;26.82;97241.06;5119830;28;790;-78
2022/12/15 08:28:29;;;;;;;;;;;;;;;20.92;27.34;97246.16;5117526;28;863;-79
2022/12/15 08:30:54;;;;;;;;;;;;;;;20.73;27.55;97242.41;5119133;28;841;-79
2022/12/15 08:33:20;;;;;;;;;;;;;;;20.64;27.98;97247.19;5119267;28;871;-78
2022/12/15 08:35:46;;;;;;;;;;;;;;;20.91;27.61;97250.25;5119400;28;1030;-78
2022/12/15 08:38:11;;;;;;;;;;;;;;;21.25;27.22;97234.50;5119043;28;1992;-79
2022/12/15 08:40:37;;;;;;;;;;;;;;;21.12;27.58;97243.03;5119066;28;967;-78
2022/12/15 08:43:02;;;;;;;;;;;;;;;21.28;27.15;97240.00;5118800;28;1009;-78
2022/12/15 08:45:27;;;;;;;;;;;;;;;20.96;27.95;97260.19;5118831;28;962;-78
2022/12/15 08:47:54;;;;;;;;;;;;;;;20.72;28.19;97243.63;5118885;28;891;-78
2022/12/15 08:50:19;;;;;;;;;;;;;;;20.95;27.75;97261.44;5117220;28;922;-78
2022/12/15 08:52:45;;;;;;;;;;;;;;;21.03;27.65;97259.94;5118728;28;846;-79
2022/12/15 08:55:10;;;;;;;;;;;;;;;21.37;27.30;97258.34;5118608;28;920;-78
2022/12/15 08:57:36;;;;;;;;;;;;;;;21.43;26.95;97270.63;5117502;28;1984;-78
2022/12/15 09:00:04;;;;;;;;;;;;;;;20.96;27.63;97269.47;5116928;28;960;-78
2022/12/15 09:02:29;;;;;;;;;;;;;;;20.63;28.49;97279.53;5119060;27;920;-78
2022/12/15 09:04:55;;;;;;;;;;;;;;;20.91;28.06;97272.09;5117690;28;932;-78
2022/12/15 09:07:20;;;;;;;;;;;;;;;20.95;28.14;97284.06;5118443;28;936;-78
2022/12/15 09:09:45;;;;;;;;;;;;;;;21.30;27.23;97271.50;5118301;28;1048;-78
2022/12/15 09:12:11;;;;;;;;;;;;;;;21.27;27.76;97265.94;5118389;28;1314;-78
2022/12/15 09:14:36;;;;;;;;;;;;;;;20.97;27.83;97265.38;5118265;28;1162;-78
2022/12/15 09:17:02;;;;;;;;;;;;;;;21.01;28.05;97259.59;5118446;28;1976;-78
2022/12/15 09:19:27;;;;;;;;;;;;;;;20.77;28.49;97259.22;5118037;28;999;-78
2022/12/15 09:21:53;;;;;;;;;;;;;;;20.85;28.79;97269.06;5117939;28;925;-78
2022/12/15 09:24:19;;;;;;;;;;;;;;;21.11;28.29;97269.75;5117347;28;1037;-78
2022/12/15 09:26:45;;;;;;;;;;;;;;;21.32;28.04;97271.81;5117178;28;923;-78
2022/12/15 09:29:12;;;;;;;;;;;;;;;20.99;28.20;97268.56;5118374;28;1007;-78
2022/12/15 09:31:37;;;;;;;;;;;;;;;21.00;28.65;97258.81;5082499;28;980;-78
2022/12/15 09:34:03;;;;;;;;;;;;;;;20.87;28.68;97265.75;5117722;28;974;-78
2022/12/15 09:36:29;;;;;;;;;;;;;;;21.13;28.42;97272.91;5118062;28;1906;-78
2022/12/15 09:38:55;;;;;;;;;;;;;;;21.17;28.60;97284.09;5117691;28;872;-78
2022/12/15 09:41:24;;;;;;;;;;;;;;;21.33;28.23;97270.56;5117271;28;939;-78
2022/12/15 09:43:50;;;;;;;;;;;;;;;21.18;28.35;97272.31;5081637;28;1078;-78
2022/12/15 09:46:20;;;;;;;;;;;;;;;21.00;28.69;97272.19;5117040;28;1513;-78
2022/12/15 09:48:45;;;;;;;;;;;;;;;20.63;29.49;97274.66;5116000;28;872;-78
2022/12/15 09:51:11;;;;;;;;;;;;;;;21.00;28.89;97272.97;5118456;28;961;-78
2022/12/15 09:53:37;;;;;;;;;;;;;;;21.10;28.84;97279.50;5116122;28;968;-78
2022/12/15 09:56:03;;;;;;;;;;;;;;;21.18;28.53;97277.97;5118004;28;1982;-78
2022/12/15 09:58:49;;;;;;;;;;;;;;;21.13;28.57;97292.69;5117729;28;959;-78
2022/12/15 10:01:29;;;;;;;;;;;;;;;20.88;29.11;97284.31;5034786;28;971;-78
2022/12/15 10:03:58;;;;;;;;;;;;;;;20.72;29.35;97279.59;5034431;28;1004;-78
2022/12/15 10:06:31;;;;;;;;;;;;;;;21.05;28.87;97277.25;5018672;28;927;-78
2022/12/15 10:08:58;;;;;;;;;;;;;;;21.18;28.36;97272.31;5017880;28;994;-78
2022/12/15 10:11:39;;;;;;;;;;;;;;;21.25;28.25;97274.91;5018509;28;1220;-78
2022/12/15 10:14:08;;;;;;;;;;;;;;;21.20;28.34;97274.69;5034154;28;978;-78
2022/12/15 10:16:35;;;;;;;;;;;;;;;21.12;28.56;97281.84;5016796;28;1989;-79
2022/12/15 10:19:15;;;;;;;;;;;;;;;21.06;28.52;97281.66;5017435;28;1022;-79
2022/12/15 10:21:41;;;;;;;;;;;;;;;21.03;28.74;97285.38;5034707;28;1113;-78
2022/12/15 10:24:19;;;;;;;;;;;;;;;21.22;28.57;97270.16;5017692;28;990;-79
2022/12/15 10:26:48;;;;;;;;;;;;;;;21.45;28.18;97276.63;5034457;28;963;-78
2022/12/15 10:29:34;;;;;;;;;;;;;;;21.31;28.48;97270.25;5034396;28;946;-79
2022/12/15 10:32:01;;;;;;;;;;;;;;;21.06;28.72;97276.78;5034422;28;1008;-79
2022/12/15 10:34:37;;;;;;;;;;;;;;;20.90;29.32;97273.34;5034415;28;924;-78
2022/12/15 10:37:03;;;;;;;;;;;;;;;21.15;29.09;97267.59;5034250;28;1909;-78
2022/12/15 10:39:39;;;;;;;;;;;;;;;21.35;28.75;97261.63;5094907;28;921;-79
2022/12/15 10:42:11;;;;;;;;;;;;;;;21.39;28.79;97261.47;5096966;28;897;-79
2022/12/15 10:44:37;;;;;;;;;;;;;;;21.34;28.89;97268.53;5096586;28;840;-78
2022/12/15 10:47:09;;;;;;;;;;;;;;;21.15;29.28;97276.06;5096540;28;884;-79
2022/12/15 10:49:35;;;;;;;;;;;;;;;20.95;29.57;97290.50;5096531;28;895;-79
2022/12/15 10:52:01;;;;;;;;;;;;;;;21.17;29.59;97284.88;5096850;28;972;-78
2022/12/15 10:54:30;;;;;;;;;;;;;;;21.22;29.39;97292.78;5095669;28;940;-79
2022/12/15 10:56:56;;;;;;;;;;;;;;;21.26;29.30;97299.09;5097554;28;1902;-79
2022/12/15 10:59:21;;;;;;;;;;;;;;;21.54;28.89;97305.00;5096324;28;901;-79
2022/12/15 11:01:47;;;;;;;;;;;;;;;21.33;29.24;97304.53;5096673;28;1102;-79
2022/12/15 11:04:25;;;;;;;;;;;;;;;21.12;29.91;97310.94;5096354;28;1085;-79
2022/12/15 11:06:54;;;;;;;;;;;;;;;21.01;29.78;97299.19;5096532;28;869;-79
2022/12/15 11:09:19;;;;;;;;;;;;;;;20.75;30.56;97309.81;5095293;28;944;-79
2022/12/15 11:14:37;;;;;;;;;;;;;;;21.44;29.32;97309.00;5095244;28;913;-79
2022/12/15 11:17:04;;;;;;;;;;;;;;;21.29;29.81;97309.47;5078413;28;1905;-79
2022/12/15 11:19:40;;;;;;;;;;;;;;;21.10;29.80;97313.44;5078043;28;1380;-79
2022/12/15 11:22:16;;;;;;;;;;;;;;;20.90;30.13;97315.75;5095650;28;914;-79
2022/12/15 11:24:46;;;;;;;;;;;;;;;21.36;29.69;97319.03;5095203;28;1135;-79
2022/12/15 11:27:29;;;;;;;;;;;;;;;21.44;29.39;97321.09;5095511;28;977;-79
2022/12/15 11:30:13;;;;;;;;;;;;;;;21.54;29.21;97314.25;5098628;28;1448;-79
2022/12/15 11:32:43;;;;;;;;;;;;;;;21.25;29.74;97320.16;5100336;28;918;-79
2022/12/15 11:35:17;;;;;;;;;;;;;;;21.35;29.69;97328.75;5099067;28;895;-79
2022/12/15 11:37:43;;;;;;;;;;;;;;;21.18;30.05;97326.06;5099086;28;1934;-79
2022/12/15 11:40:21;;;;;;;;;;;;;;;21.35;29.84;97334.41;5099042;28;994;-79
2022/12/15 11:42:46;;;;;;;;;;;;;;;21.44;29.67;97329.59;5099799;28;895;-78
2022/12/15 11:45:35;;;;;;;;;;;;;;;21.25;30.07;97337.16;5100170;28;921;-78
2022/12/15 11:48:10;;;;;;;;;;;;;;;21.23;29.73;97330.34;5098482;28;1037;-78
2022/12/15 11:50:52;;;;;;;;;;;;;;;21.16;29.85;97337.06;5100058;28;1187;-77
2022/12/15 11:53:20;;;;;;;;;;;;;;;21.30;30.06;97336.59;5097908;28;961;-77
2022/12/15 11:55:56;;;;;;;;;;;;;;;21.49;29.51;97348.03;5098030;28;941;-77
2022/12/15 11:58:21;;;;;;;;;;;;;;;21.59;29.65;97346.84;5098211;28;1967;-78
2022/12/15 12:00:54;;;;;;;;;;;;;;;21.18;29.78;97350.72;5099704;28;943;-77
2022/12/15 12:03:35;;;;;;;;;;;;;;;20.93;30.53;97355.22;5098168;28;904;-79
2022/12/15 12:06:11;;;;;;;;;;;;;;;21.02;30.16;97352.47;5100067;28;956;-78
2022/12/15 12:08:39;;;;;;;;;;;;;;;21.17;30.11;97366.91;5098305;28;965;-78
2022/12/15 12:11:05;;;;;;;;;;;;;;;21.54;29.51;97370.09;5099894;28;1094;-78
2022/12/15 12:13:36;;;;;;;;;;;;;;;21.47;29.39;97381.69;5099151;28;901;-78
2022/12/15 12:16:01;;;;;;;;;;;;;;;20.98;30.06;97391.41;5098050;28;944;-78
2022/12/15 12:18:31;;;;;;;;;;;;;;;21.06;30.02;97408.94;5098561;28;1906;-77
2022/12/15 12:21:17;;;;;;;;;;;;;;;20.87;30.51;97418.47;5097819;28;952;-78
2022/12/15 12:23:51;;;;;;;;;;;;;;;21.22;29.71;97411.59;5098114;28;1015;-78
2022/12/15 12:26:16;;;;;;;;;;;;;;;21.27;29.81;97402.53;5097909;28;937;-78
2022/12/15 12:28:42;;;;;;;;;;;;;;;21.45;29.10;97406.81;5098711;28;916;-79
2022/12/15 12:31:10;;;;;;;;;;;;;;;21.17;29.37;97406.53;5099536;28;974;-78
2022/12/15 12:33:37;;;;;;;;;;;;;;;20.84;30.12;97397.56;5097640;28;1024;-78
2022/12/15 12:36:10;;;;;;;;;;;;;;;20.76;30.07;97396.97;5097941;28;943;-78
2022/12/15 12:38:38;;;;;;;;;;;;;;;20.97;29.92;97406.78;5097453;28;887;-78
2022/12/15 12:41:10;;;;;;;;;;;;;;;21.19;29.40;97401.22;5097725;28;860;-78
2022/12/15 12:43:40;;;;;;;;;;;;;;;21.35;29.38;97402.31;5097401;28;938;-78
2022/12/15 12:46:08;;;;;;;;;;;;;;;21.40;29.21;97404.56;5097580;28;871;-78
2022/12/15 12:48:39;;;;;;;;;;;;;;;20.89;29.73;97416.00;5098622;28;952;-78
2022/12/15 12:51:23;;;;;;;;;;;;;;;20.98;29.99;97424.53;5098974;28;901;-78
2022/12/15 12:53:48;;;;;;;;;;;;;;;20.98;29.77;97436.66;5097038;28;947;-78
2022/12/15 12:56:32;;;;;;;;;;;;;;;21.07;29.83;97438.78;5097277;28;1967;-78
2022/12/15 12:58:58;;;;;;;;;;;;;;;21.18;29.62;97439.22;5098156;28;990;-78
2022/12/15 13:01:29;;;;;;;;;;;;;;;21.26;29.73;97451.91;5095818;28;1019;-78
2022/12/15 13:04:05;;;;;;;;;;;;;;;21.31;29.54;97447.72;5095693;28;910;-78
2022/12/15 13:06:30;;;;;;;;;;;;;;;20.99;29.93;97443.13;5096161;28;955;-78
2022/12/15 13:08:56;;;;;;;;;;;;;;;20.97;29.91;97432.25;5095660;28;966;-78
2022/12/15 13:11:44;;;;;;;;;;;;;;;21.33;29.61;97426.22;5096037;28;1269;-78
2022/12/15 13:14:19;;;;;;;;;;;;;;;21.38;29.51;97435.38;5055133;28;1000;-78
2022/12/15 13:16:45;;;;;;;;;;;;;;;21.19;29.55;97435.16;5039021;28;1991;-78
2022/12/15 13:19:10;;;;;;;;;;;;;;;20.97;29.97;97439.94;5038778;28;924;-78
2022/12/15 13:21:45;;;;;;;;;;;;;;;20.89;30.29;97444.25;5055620;28;960;-78
2022/12/15 13:24:37;;;;;;;;;;;;;;;21.12;30.00;97458.03;5055258;28;992;-78
2022/12/15 13:27:08;;;;;;;;;;;;;;;21.45;29.68;97466.25;5035411;28;1022;-78
2022/12/15 13:29:34;;;;;;;;;;;;;;;21.42;29.45;97472.84;5035337;28;958;-78
2022/12/15 13:31:59;;;;;;;;;;;;;;;21.08;29.80;97488.47;5041653;28;1193;-78
2022/12/15 13:34:25;;;;;;;;;;;;;;;21.06;29.96;97499.44;5038123;28;1029;-78
2022/12/15 13:36:54;;;;;;;;;;;;;;;20.94;29.98;97498.22;5054960;28;1985;-78
2022/12/15 13:39:26;;;;;;;;;;;;;;;21.37;29.70;97493.22;5054695;28;910;-78
2022/12/15 13:41:51;;;;;;;;;;;;;;;21.20;29.76;97487.69;5054890;28;963;-78
2022/12/15 13:44:19;;;;;;;;;;;;;;;21.31;29.80;97496.63;5043177;28;1194;-78
2022/12/15 13:46:45;;;;;;;;;;;;;;;21.06;30.01;97494.59;5028353;28;1142;-78
2022/12/15 13:49:13;;;;;;;;;;;;;;;21.12;29.70;97511.78;5042770;28;1182;-78
2022/12/15 13:51:42;;;;;;;;;;;;;;;21.00;30.10;97519.03;5076244;28;1250;-78
2022/12/15 13:54:08;;;;;;;;;;;;;;;21.17;30.00;97516.88;5053089;28;1162;-78
2022/12/15 13:56:40;;;;;;;;;;;;;;;21.39;29.45;97525.47;5053426;28;1971;-78
2022/12/15 13:59:24;;;;;;;;;;;;;;;21.24;29.33;97533.63;5053506;28;1241;-79
2022/12/15 14:01:50;;;;;;;;;;;;;;;20.89;30.13;97534.75;5054885;28;1054;-79
2022/12/15 14:04:15;;;;;;;;;;;;;;;20.81;30.20;97546.28;5081403;28;1002;-79
2022/12/15 14:06:47;;;;;;;;;;;;;;;21.13;30.08;97540.84;5094818;28;920;-79
2022/12/15 14:09:13;;;;;;;;;;;;;;;21.24;29.56;97533.63;5094524;28;1038;-79
2022/12/15 14:11:40;;;;;;;;;;;;;;;21.39;29.35;97544.50;5094576;28;1117;-79
2022/12/15 14:14:05;;;;;;;;;;;;;;;21.68;28.77;97535.84;5077819;28;1003;-79
2022/12/15 14:16:32;;;;;;;;;;;;;;;21.39;29.39;97547.31;5077931;28;1909;-79
2022/12/15 14:19:09;;;;;;;;;;;;;;;21.02;29.79;97561.00;5077768;28;930;-79
2022/12/15 14:21:36;;;;;;;;;;;;;;;20.92;29.78;97567.78;5077606;28;1013;-79
2022/12/15 14:24:01;;;;;;;;;;;;;;;21.25;29.80;97574.81;5094713;28;1014;-79
2022/12/15 14:26:29;;;;;;;;;;;;;;;21.30;29.38;97570.66;5095819;28;841;-79
2022/12/15 14:29:01;;;;;;;;;;;;;;;21.08;29.78;97576.16;5095247;28;972;-79
2022/12/15 14:31:27;;;;;;;;;;;;;;;20.89;30.06;97580.00;5096557;28;902;-79
2022/12/15 14:33:57;;;;;;;;;;;;;;;20.90;29.93;97587.25;5096868;28;959;-79
2022/12/15 14:36:23;;;;;;;;;;;;;;;20.90;30.23;97601.38;5095710;28;1917;-79
2022/12/15 14:38:49;;;;;;;;;;;;;;;21.16;29.52;97605.03;5096393;28;924;-79
2022/12/15 14:41:19;;;;;;;;;;;;;;;21.37;29.41;97595.09;5096657;28;974;-79
2022/12/15 14:43:44;;;;;;;;;;;;;;;21.35;29.14;97600.41;5096449;28;923;-79
2022/12/15 14:46:10;;;;;;;;;;;;;;;20.89;29.89;97597.75;5095848;28;899;-79
2022/12/15 14:48:37;;;;;;;;;;;;;;;21.06;29.48;97595.63;5096133;28;915;-79
2022/12/15 14:51:02;;;;;;;;;;;;;;;20.81;30.12;97602.81;5095511;28;910;-79
2022/12/15 14:53:32;;;;;;;;;;;;;;;21.21;29.69;97607.28;5096237;28;978;-79
2022/12/15 14:55:59;;;;;;;;;;;;;;;21.56;29.16;97599.75;5060790;28;953;-79
2022/12/15 14:58:24;;;;;;;;;;;;;;;21.10;29.48;97613.28;5094545;28;2006;-79
2022/12/15 15:00:51;;;;;;;;;;;;;;;20.91;29.81;97617.88;5096830;28;965;-79
2022/12/15 15:03:17;;;;;;;;;;;;;;;20.79;30.26;97619.47;5096017;28;917;-79
2022/12/15 15:05:47;;;;;;;;;;;;;;;20.92;30.30;97636.44;5100713;28;870;-79
2022/12/15 15:08:13;;;;;;;;;;;;;;;21.19;29.63;97641.72;5099128;28;878;-79
2022/12/15 15:10:38;;;;;;;;;;;;;;;21.30;29.23;97645.03;5100581;28;1195;-79
2022/12/15 15:13:04;;;;;;;;;;;;;;;20.95;29.85;97648.91;5100145;28;858;-79
2022/12/15 15:15:29;;;;;;;;;;;;;;;20.83;29.88;97646.81;5100685;28;894;-79
2022/12/15 15:17:56;;;;;;;;;;;;;;;20.89;29.87;97636.56;5099292;28;1975;-79
2022/12/15 15:20:23;;;;;;;;;;;;;;;21.02;30.01;97628.88;5099102;28;946;-79
2022/12/15 15:23:20;;;;;;;;;;;;;;;21.26;29.52;97621.66;5077582;28;874;-79
2022/12/15 15:25:49;;;;;;;;;;;;;;;21.25;29.40;97620.09;5017848;28;934;-79
2022/12/15 15:28:18;;;;;;;;;;;;;;;20.97;29.86;97627.41;5017486;28;1096;-79
2022/12/15 15:30:44;;;;;;;;;;;;;;;20.80;29.84;97623.06;5017841;28;1039;-79
2022/12/15 15:33:11;;;;;;;;;;;;;;;20.76;29.88;97628.81;5017539;28;1041;-79